KPOU/POU METAR and TAF weather

Enter ICAO airport designator
Station Type Date Time Source
KPOU METAR 2020/07/02 20:53 UTC NOAA

KPOU 022053Z AUTO 33008KT 10SM FEW070 34/17 A2975 RMK AO2 SLP071 T03390167 56012


Station Type Date Time Source
KPOU Decoded METAR 2020/07/02 20:53 UTC NOAA

POUGHKEEPSIE DUTCHESS CTY, NY, United States (KPOU) 41-38N 073-53W 46M
Jul 02, 2020 - 04:53 PM EDT / 2020.07.02 2053 UTC
Wind: from the NNW (330 degrees) at 9 MPH (8 KT):0
Visibility: 10 mile(s):0
Sky conditions: mostly clear
Temperature: 93.0 F (33.9 C)
Dew Point: 62.1 F (16.7 C)
Relative Humidity: 35%
Pressure (altimeter): 29.75 in. Hg (1007 hPa)
Pressure tendency: 0.04 inches (1.2 hPa) lower than three hours ago
ob: KPOU 022053Z AUTO 33008KT 10SM FEW070 34/17 A2975 RMK AO2 SLP071 T03390167 56012
cycle: 21

Station Type Date Time Source
KPOU TAF 2020/07/02 18:42 UTC NOAA

TAF KPOU 021739Z 0218/0318 VRB03KT P6SM FEW040
FM022000 32003KT P6SM SCT100
FM031200 35002KT P6SM SCT025 BKN050
FM031600 01004KT P6SM BKN050

Example: see airport list